Time;durP1;ratioP1;P1;durP2;ratioP2;P2;SDS_P1;SDS_P2;PMS_P1;PMS_P2;Temp;Humidity;BMP_temperature;BMP_pressure;BME280_temperature;BME280_humidity;BME280_pressure;Samples;Min_cycle;Max_cycle;Signal;HPM_P1;HPM_P2
2022/06/28 00:00:09;;;;;;;23.05;14.02;;;16.80;99.90;;;;;;5001359;28;20108;-62
2022/06/28 00:02:34;;;;;;;28.02;15.00;;;16.80;99.90;;;;;;5006963;28;20103;-63
2022/06/28 00:05:00;;;;;;;27.05;13.77;;;16.70;99.90;;;;;;5006803;28;20034;-63
2022/06/28 00:07:27;;;;;;;25.67;14.73;;;16.60;99.90;;;;;;5039292;28;20694;-62
2022/06/28 00:09:52;;;;;;;27.35;14.93;;;16.60;99.90;;;;;;5003461;28;20057;-62
2022/06/28 00:12:18;;;;;;;27.13;14.40;;;16.60;99.90;;;;;;5008990;28;20030;-63
2022/06/28 00:17:28;;;;;;;19.05;12.40;;;16.60;99.90;;;;;;5011691;28;20042;-63
2022/06/28 00:19:54;;;;;;;29.90;14.30;;;16.70;99.90;;;;;;4991948;28;20026;-63
2022/06/28 00:22:20;;;;;;;26.35;13.38;;;16.70;99.90;;;;;;5039855;28;20427;-62
2022/06/28 00:24:45;;;;;;;23.08;15.05;;;16.80;99.90;;;;;;4996777;28;20081;-62
2022/06/28 00:27:11;;;;;;;20.58;13.85;;;16.80;99.90;;;;;;5001495;28;20095;-62
2022/06/28 00:29:37;;;;;;;25.35;13.77;;;16.70;99.90;;;;;;5005943;28;20033;-65
2022/06/28 00:32:03;;;;;;;20.33;13.50;;;16.70;99.90;;;;;;5004851;28;20443;-61
2022/06/28 00:34:28;;;;;;;25.40;14.23;;;16.70;99.90;;;;;;5004759;28;20029;-62
2022/06/28 00:36:54;;;;;;;25.60;13.98;;;16.80;99.90;;;;;;5026071;28;20037;-63
2022/06/28 00:39:20;;;;;;;26.30;15.23;;;16.80;99.90;;;;;;5008475;28;20079;-62
2022/06/28 00:41:45;;;;;;;26.85;15.00;;;16.80;99.90;;;;;;5004688;28;20094;-64
2022/06/28 00:44:12;;;;;;;27.48;14.90;;;16.80;99.90;;;;;;5003744;28;20090;-62
2022/06/28 00:46:38;;;;;;;27.40;15.70;;;16.80;99.90;;;;;;5006917;28;20043;-65
2022/06/28 00:49:04;;;;;;;30.23;15.65;;;16.80;99.90;;;;;;5005222;28;20701;-62
2022/06/28 00:51:31;;;;;;;25.42;14.43;;;16.70;99.90;;;;;;4985239;28;20042;-62
2022/06/28 00:53:57;;;;;;;35.00;16.33;;;16.80;99.90;;;;;;5001217;28;20032;-62
2022/06/28 00:56:24;;;;;;;28.50;15.73;;;16.70;99.90;;;;;;5008438;28;20457;-65
2022/06/28 00:58:52;;;;;;;27.08;15.20;;;16.70;99.90;;;;;;5008132;28;20034;-63
2022/06/28 01:01:20;;;;;;;41.78;16.95;;;16.70;99.90;;;;;;5006132;28;20482;-62
2022/06/28 01:03:46;;;;;;;42.03;17.30;;;16.70;99.90;;;;;;5003853;28;20519;-63
2022/06/28 01:06:12;;;;;;;28.25;16.35;;;16.70;99.90;;;;;;5003786;28;20034;-64
2022/06/28 01:08:39;;;;;;;29.13;15.45;;;16.70;99.90;;;;;;5001544;28;20050;-63
2022/06/28 01:11:20;;;;;;;25.58;15.40;;;16.70;99.90;;;;;;5005724;28;20030;-63
2022/06/28 01:13:59;;;;;;;31.73;15.35;;;16.60;99.90;;;;;;4994276;28;20048;-62
2022/06/28 01:16:26;;;;;;;24.85;15.20;;;16.60;99.90;;;;;;5005044;28;20045;-63
2022/06/28 01:18:52;;;;;;;23.30;13.35;;;16.50;99.90;;;;;;4993209;28;20038;-63
2022/06/28 01:21:18;;;;;;;20.83;13.38;;;16.50;99.90;;;;;;5005409;28;20026;-63
2022/06/28 01:23:45;;;;;;;25.55;13.27;;;16.60;99.90;;;;;;4993563;28;20064;-64
2022/06/28 01:26:12;;;;;;;22.05;13.50;;;16.60;99.90;;;;;;5005823;28;20082;-63
2022/06/28 01:28:40;;;;;;;20.30;12.45;;;16.60;99.90;;;;;;5008728;28;20466;-62
2022/06/28 01:31:06;;;;;;;20.75;13.27;;;16.60;99.90;;;;;;5005186;28;20030;-62
2022/06/28 01:33:33;;;;;;;22.85;13.43;;;16.60;99.90;;;;;;5004889;28;20042;-64
2022/06/28 01:35:59;;;;;;;323.35;22.25;;;16.60;99.90;;;;;;5023037;28;20113;-62
2022/06/28 01:38:25;;;;;;;454.92;22.45;;;16.50;99.90;;;;;;5064357;28;20052;-63
2022/06/28 01:40:51;;;;;;;129.00;16.63;;;16.40;99.90;;;;;;5007055;28;20106;-62
2022/06/28 01:43:17;;;;;;;141.13;15.57;;;16.40;99.90;;;;;;5000220;28;20026;-65
2022/06/28 01:45:44;;;;;;;359.23;20.73;;;16.40;99.90;;;;;;4997380;28;20036;-64
2022/06/28 01:48:10;;;;;;;376.95;19.27;;;16.50;99.90;;;;;;5004609;28;20037;-62
2022/06/28 01:50:37;;;;;;;149.07;17.27;;;16.40;99.90;;;;;;5005284;28;20034;-63
2022/06/28 01:53:03;;;;;;;116.78;15.00;;;16.40;99.90;;;;;;5001909;28;20037;-61
2022/06/28 01:55:29;;;;;;;144.15;16.92;;;16.40;99.90;;;;;;5008184;28;20033;-61
2022/06/28 01:57:55;;;;;;;660.10;27.17;;;16.40;99.90;;;;;;5008027;28;20036;-63
2022/06/28 02:00:21;;;;;;;408.65;20.38;;;16.30;99.90;;;;;;5003783;28;20029;-62
2022/06/28 02:02:46;;;;;;;38.33;14.30;;;16.30;99.90;;;;;;5043584;28;20136;-65
2022/06/28 02:05:12;;;;;;;454.65;19.83;;;16.30;99.90;;;;;;4999586;28;20027;-62
2022/06/28 02:07:47;;;;;;;383.77;19.05;;;16.30;99.90;;;;;;5002413;28;20042;-62
2022/06/28 02:10:12;;;;;;;583.38;21.15;;;16.30;99.90;;;;;;5007287;28;20485;-61
2022/06/28 02:12:38;;;;;;;868.95;28.58;;;16.20;99.90;;;;;;5004747;28;20064;-62
2022/06/28 02:15:04;;;;;;;774.22;25.08;;;16.20;99.90;;;;;;5003790;28;20053;-62
2022/06/28 02:17:30;;;;;;;861.78;27.40;;;16.10;99.90;;;;;;5006748;28;20087;-62
2022/06/28 02:19:55;;;;;;;449.58;18.23;;;16.10;99.90;;;;;;5003683;28;20041;-63
2022/06/28 02:22:21;;;;;;;596.75;21.27;;;16.00;99.90;;;;;;4983550;28;20253;-62
2022/06/28 02:24:48;;;;;;;364.02;15.93;;;16.00;99.90;;;;;;5001272;28;20032;-64
2022/06/28 02:27:14;;;;;;;403.52;17.92;;;16.10;99.90;;;;;;5005304;28;20030;-62
2022/06/28 02:29:40;;;;;;;47.20;13.60;;;16.10;99.90;;;;;;5003877;28;20820;-62
2022/06/28 02:32:06;;;;;;;40.92;13.85;;;16.10;99.90;;;;;;5002653;28;20611;-62
2022/06/28 02:42:44;;;;;;;30.55;12.68;;;16.00;99.90;;;;;;5002824;28;20090;-63
2022/06/28 02:45:10;;;;;;;94.85;13.00;;;16.00;99.90;;;;;;4994859;28;20030;-63
2022/06/28 02:47:36;;;;;;;190.77;15.57;;;16.00;99.90;;;;;;5006024;28;20037;-64
2022/06/28 02:50:01;;;;;;;23.48;12.00;;;16.00;99.90;;;;;;5007545;28;20637;-62
2022/06/28 02:52:27;;;;;;;31.25;13.27;;;16.00;99.90;;;;;;5006790;28;20033;-62
2022/06/28 02:54:53;;;;;;;32.92;11.75;;;16.00;99.90;;;;;;5005402;28;20458;-62
2022/06/28 02:57:18;;;;;;;41.90;11.10;;;16.10;99.90;;;;;;4988204;28;20540;-62
2022/06/28 02:59:44;;;;;;;41.55;11.82;;;16.20;99.90;;;;;;5005733;28;20474;-62
2022/06/28 03:02:09;;;;;;;67.75;11.98;;;16.20;99.90;;;;;;4999809;28;20221;-63
2022/06/28 03:04:35;;;;;;;62.13;12.60;;;16.20;99.90;;;;;;5076741;28;20371;-63
2022/06/28 03:07:01;;;;;;;22.98;11.48;;;16.20;99.90;;;;;;5004770;28;20029;-63
2022/06/28 03:09:26;;;;;;;27.02;13.27;;;16.20;99.90;;;;;;5007535;28;20038;-62
2022/06/28 03:11:52;;;;;;;23.30;12.98;;;16.20;99.90;;;;;;4990054;28;20038;-65
2022/06/28 03:14:17;;;;;;;19.95;12.18;;;16.20;99.90;;;;;;5031681;28;20103;-62
2022/06/28 03:16:43;;;;;;;19.90;11.82;;;16.20;99.90;;;;;;5001383;28;20034;-62
2022/06/28 03:19:09;;;;;;;22.65;12.50;;;16.10;99.90;;;;;;4994033;28;20054;-63
2022/06/28 03:21:34;;;;;;;20.08;11.90;;;16.10;99.90;;;;;;5003877;28;20037;-63
2022/06/28 03:24:00;;;;;;;40.45;14.20;;;16.20;99.90;;;;;;5004032;28;20034;-63
2022/06/28 03:26:26;;;;;;;208.20;16.02;;;16.20;99.90;;;;;;5004708;28;20055;-63
2022/06/28 03:28:51;;;;;;;253.63;16.30;;;16.10;99.90;;;;;;5005190;28;20037;-65
2022/06/28 03:31:17;;;;;;;146.50;13.07;;;16.10;99.90;;;;;;5016325;28;20082;-63
2022/06/28 03:33:43;;;;;;;53.53;13.90;;;16.10;99.90;;;;;;5006111;28;20030;-65
2022/06/28 03:36:09;;;;;;;136.20;15.02;;;16.00;99.90;;;;;;4996004;28;20485;-63
2022/06/28 03:38:34;;;;;;;318.40;16.95;;;16.00;99.90;;;;;;5006868;28;20038;-63
2022/06/28 03:41:00;;;;;;;32.25;12.88;;;16.00;99.90;;;;;;5001268;28;20156;-62
2022/06/28 03:43:26;;;;;;;725.35;23.48;;;16.00;99.90;;;;;;5010259;28;20631;-63
2022/06/28 03:45:51;;;;;;;26.88;11.55;;;16.10;99.90;;;;;;4996089;28;20030;-65
2022/06/28 03:48:17;;;;;;;25.80;13.90;;;16.00;99.90;;;;;;5006669;28;20029;-62
2022/06/28 03:50:43;;;;;;;76.70;15.07;;;16.00;99.90;;;;;;5017539;28;20034;-62
2022/06/28 03:53:08;;;;;;;89.13;13.70;;;16.10;99.90;;;;;;5076089;28;20037;-63
2022/06/28 03:55:34;;;;;;;27.65;12.90;;;16.10;99.90;;;;;;4996353;28;20742;-62
2022/06/28 03:57:59;;;;;;;27.20;13.93;;;16.10;99.90;;;;;;5003657;28;20040;-62
2022/06/28 04:00:25;;;;;;;22.83;12.15;;;16.10;99.90;;;;;;4996026;28;20049;-63
2022/06/28 04:02:51;;;;;;;33.55;12.82;;;16.10;99.90;;;;;;4999251;28;20390;-65
2022/06/28 04:05:16;;;;;;;16.75;10.85;;;16.10;99.90;;;;;;4992347;28;20101;-62
2022/06/28 04:07:42;;;;;;;24.60;10.02;;;16.10;99.90;;;;;;5005072;28;20468;-62
2022/06/28 04:10:08;;;;;;;18.48;11.05;;;16.10;99.90;;;;;;5004619;28;20117;-65
2022/06/28 04:12:34;;;;;;;14.75;10.15;;;16.10;99.90;;;;;;5001778;28;20375;-62
2022/06/28 04:14:59;;;;;;;16.35;10.07;;;16.20;99.90;;;;;;5044235;28;20038;-63
2022/06/28 04:17:25;;;;;;;13.77;8.85;;;16.30;99.90;;;;;;4979131;28;20042;-63
2022/06/28 04:19:51;;;;;;;12.98;8.48;;;16.40;99.90;;;;;;4988152;28;20033;-65
2022/06/28 04:22:16;;;;;;;9.90;7.20;;;16.50;99.90;;;;;;4991434;28;20470;-62
2022/06/28 04:24:42;;;;;;;9.25;6.82;;;16.60;99.90;;;;;;4997969;28;20435;-63
2022/06/28 04:27:08;;;;;;;12.13;7.50;;;16.60;99.90;;;;;;5005062;28;20034;-65
2022/06/28 04:29:33;;;;;;;10.57;7.75;;;16.60;99.90;;;;;;5019547;28;20044;-63
2022/06/28 04:31:59;;;;;;;13.25;8.98;;;16.70;99.90;;;;;;5004225;28;20065;-63
2022/06/28 04:34:25;;;;;;;17.60;8.98;;;16.70;99.90;;;;;;5058001;28;20074;-65
2022/06/28 04:36:50;;;;;;;22.65;10.48;;;16.80;99.90;;;;;;5089240;28;20028;-63
2022/06/28 04:39:16;;;;;;;25.38;10.10;;;16.80;99.90;;;;;;5008420;28;20040;-63
2022/06/28 04:41:42;;;;;;;621.22;22.63;;;16.70;99.90;;;;;;5007112;28;20473;-63
2022/06/28 04:44:07;;;;;;;1269.95;33.75;;;16.60;99.90;;;;;;5029373;28;20055;-63
2022/06/28 04:46:33;;;;;;;294.10;14.40;;;16.50;99.90;;;;;;5106839;28;20039;-63
2022/06/28 04:48:59;;;;;;;530.60;17.90;;;16.40;99.90;;;;;;5108646;28;20024;-63
2022/06/28 04:51:24;;;;;;;334.58;14.18;;;16.30;99.90;;;;;;5010898;28;20029;-64
2022/06/28 04:53:50;;;;;;;680.88;18.90;;;16.40;99.90;;;;;;5006246;28;20474;-63
2022/06/28 04:56:16;;;;;;;663.60;19.92;;;16.50;99.90;;;;;;5005531;28;20025;-63
2022/06/28 04:58:42;;;;;;;519.20;16.65;;;16.40;99.90;;;;;;5006509;28;20026;-64
2022/06/28 05:01:08;;;;;;;620.30;19.23;;;16.50;99.90;;;;;;4996526;28;20034;-63
2022/06/28 05:03:34;;;;;;;224.45;12.60;;;16.50;99.90;;;;;;4997788;28;20048;-63
2022/06/28 05:05:59;;;;;;;117.60;11.45;;;16.50;99.90;;;;;;5004625;28;20450;-62
2022/06/28 05:08:25;;;;;;;17.15;10.63;;;16.50;99.90;;;;;;5003616;28;20052;-63
2022/06/28 05:10:51;;;;;;;14.27;9.85;;;16.60;99.90;;;;;;5038668;28;20437;-62
2022/06/28 05:13:16;;;;;;;26.67;9.25;;;16.80;99.90;;;;;;4985446;28;20194;-62
2022/06/28 05:15:42;;;;;;;15.40;9.27;;;17.00;99.90;;;;;;4998651;28;20044;-62
2022/06/28 05:18:08;;;;;;;13.20;8.07;;;17.10;99.90;;;;;;5005191;28;20114;-63
2022/06/28 05:20:34;;;;;;;11.20;7.70;;;17.30;99.90;;;;;;5032457;28;20464;-64
2022/06/28 05:22:59;;;;;;;10.40;7.50;;;17.50;99.90;;;;;;5004104;28;20065;-64
2022/06/28 05:25:25;;;;;;;14.10;7.82;;;17.60;99.90;;;;;;5006100;28;20102;-63
2022/06/28 05:27:51;;;;;;;11.68;7.00;;;17.70;99.90;;;;;;5020284;28;20030;-63
2022/06/28 05:30:17;;;;;;;10.85;7.40;;;17.80;99.90;;;;;;5004677;28;20090;-63
2022/06/28 05:32:43;;;;;;;13.07;9.25;;;17.90;99.90;;;;;;5026767;28;20027;-63
2022/06/28 05:35:10;;;;;;;12.10;8.65;;;17.90;99.90;;;;;;5046637;28;20111;-62
2022/06/28 05:37:36;;;;;;;11.73;8.35;;;17.90;99.90;;;;;;5003948;28;20026;-64
2022/06/28 05:40:02;;;;;;;13.10;8.70;;;18.00;99.90;;;;;;4997048;28;20134;-64
2022/06/28 05:42:28;;;;;;;11.70;8.35;;;17.90;99.90;;;;;;5004972;28;20067;-62
2022/06/28 05:44:53;;;;;;;10.55;7.70;;;17.90;99.90;;;;;;5005278;28;20457;-62
2022/06/28 05:47:19;;;;;;;10.63;7.60;;;17.90;99.90;;;;;;4989970;28;20026;-63
2022/06/28 05:49:45;;;;;;;12.02;6.55;;;18.10;99.90;;;;;;5084233;28;20043;-63
2022/06/28 05:52:10;;;;;;;9.65;6.00;;;18.20;99.90;;;;;;5044578;28;20408;-63
2022/06/28 05:54:36;;;;;;;8.07;5.30;;;18.20;99.90;;;;;;5006667;28;20484;-63
2022/06/28 05:57:02;;;;;;;7.55;5.00;;;18.20;99.90;;;;;;5004878;28;20028;-62
2022/06/28 05:59:28;;;;;;;8.35;5.70;;;18.40;99.90;;;;;;5004856;28;20025;-63
2022/06/28 06:01:55;;;;;;;8.18;5.32;;;18.60;99.90;;;;;;5005539;28;20033;-64
2022/06/28 06:04:22;;;;;;;7.43;5.28;;;18.80;99.90;;;;;;4985142;28;20108;-63
2022/06/28 06:06:48;;;;;;;10.65;5.78;;;18.80;99.90;;;;;;5000416;28;20037;-63
2022/06/28 06:09:14;;;;;;;8.25;5.25;;;19.00;99.90;;;;;;5000908;28;20073;-64
2022/06/28 06:11:40;;;;;;;9.65;5.55;;;19.30;99.90;;;;;;5048482;28;20047;-63
2022/06/28 06:14:06;;;;;;;8.32;5.78;;;19.30;99.90;;;;;;5031977;28;20026;-63
2022/06/28 06:16:32;;;;;;;7.75;5.80;;;19.50;99.90;;;;;;5005307;28;20037;-64
2022/06/28 06:18:58;;;;;;;11.00;6.13;;;19.40;99.90;;;;;;5006098;28;20026;-64
2022/06/28 06:21:23;;;;;;;8.15;6.15;;;19.40;99.90;;;;;;5008118;28;20037;-63
2022/06/28 06:23:49;;;;;;;9.13;6.28;;;19.30;99.90;;;;;;5041274;28;20104;-63
2022/06/28 06:26:15;;;;;;;10.20;6.18;;;19.30;99.90;;;;;;5048799;28;20700;-63
2022/06/28 06:28:40;;;;;;;10.55;6.18;;;19.30;99.90;;;;;;5008650;28;20512;-63
2022/06/28 06:31:08;;;;;;;12.80;6.00;;;19.30;99.90;;;;;;5035890;28;21822;-63
2022/06/28 06:33:34;;;;;;;10.82;5.25;;;19.50;99.90;;;;;;5088669;28;20107;-63
2022/06/28 06:36:00;;;;;;;10.20;5.38;;;19.50;99.90;;;;;;5079381;28;20486;-65
2022/06/28 06:38:26;;;;;;;11.40;5.47;;;19.30;99.90;;;;;;5110165;28;20031;-63
2022/06/28 06:40:54;;;;;;;6.05;4.53;;;19.10;99.90;;;;;;5088639;28;20476;-64
2022/06/28 06:43:20;;;;;;;7.93;5.35;;;18.90;99.90;;;;;;4988011;28;20018;-63
2022/06/28 06:45:46;;;;;;;6.95;4.93;;;19.00;99.90;;;;;;5004543;28;20121;-64
2022/06/28 06:48:12;;;;;;;6.53;4.75;;;18.90;99.90;;;;;;5007502;28;20034;-64
2022/06/28 06:50:37;;;;;;;5.32;4.30;;;19.00;99.90;;;;;;5008026;28;20030;-64
2022/06/28 06:53:03;;;;;;;7.68;5.03;;;19.00;99.90;;;;;;5007486;28;20458;-64
2022/06/28 06:55:29;;;;;;;6.80;5.13;;;19.10;99.90;;;;;;5007816;28;20113;-63
2022/06/28 06:57:55;;;;;;;9.82;5.90;;;19.10;99.90;;;;;;5008180;28;20742;-64
2022/06/28 07:00:20;;;;;;;7.28;5.45;;;19.10;99.90;;;;;;5019264;28;20489;-63
2022/06/28 07:02:47;;;;;;;7.30;5.13;;;19.00;99.90;;;;;;5027717;28;20030;-64
2022/06/28 07:05:13;;;;;;;10.52;5.97;;;19.10;99.90;;;;;;5026933;28;20048;-63
2022/06/28 07:07:39;;;;;;;7.28;4.93;;;19.20;99.90;;;;;;5009016;28;20485;-63
2022/06/28 07:10:05;;;;;;;15.48;5.45;;;19.20;99.90;;;;;;5006637;28;20041;-65
2022/06/28 07:12:31;;;;;;;7.15;5.90;;;19.10;99.90;;;;;;5008131;28;20049;-63
2022/06/28 07:14:57;;;;;;;10.23;6.28;;;19.10;99.90;;;;;;5006778;28;20386;-63
2022/06/28 07:17:22;;;;;;;8.30;6.53;;;19.00;99.90;;;;;;5006820;28;20175;-63
2022/06/28 07:19:48;;;;;;;7.47;5.65;;;19.00;99.90;;;;;;5008140;28;20037;-63
2022/06/28 07:22:14;;;;;;;6.80;5.55;;;19.00;99.90;;;;;;5000551;28;20678;-63
2022/06/28 07:24:39;;;;;;;9.98;6.03;;;19.00;99.90;;;;;;5006561;28;20088;-63
2022/06/28 07:27:05;;;;;;;9.35;5.80;;;19.00;99.90;;;;;;5006893;28;20026;-64
2022/06/28 07:29:31;;;;;;;7.82;5.32;;;19.00;99.90;;;;;;5021254;28;20020;-63
2022/06/28 07:31:56;;;;;;;13.95;6.07;;;18.90;99.90;;;;;;5033545;28;20500;-64
2022/06/28 07:34:23;;;;;;;12.07;5.70;;;18.90;99.90;;;;;;5006397;28;20158;-64
2022/06/28 07:36:49;;;;;;;9.50;5.80;;;18.60;99.90;;;;;;5007522;28;20034;-63
2022/06/28 07:39:15;;;;;;;7.70;5.75;;;18.50;99.90;;;;;;5006684;28;20042;-64
2022/06/28 07:41:41;;;;;;;8.65;6.30;;;18.50;99.90;;;;;;5063239;28;20027;-63
2022/06/28 07:44:07;;;;;;;10.93;6.18;;;18.60;99.90;;;;;;5110257;28;20035;-65
2022/06/28 07:46:33;;;;;;;8.50;6.45;;;18.50;99.90;;;;;;5110681;28;20028;-64
2022/06/28 07:48:58;;;;;;;10.70;6.68;;;18.50;99.90;;;;;;5107753;28;20031;-64
2022/06/28 07:54:08;;;;;;;9.95;6.40;;;18.60;99.90;;;;;;5101799;28;20027;-64
2022/06/28 07:56:34;;;;;;;9.75;6.32;;;18.70;99.90;;;;;;5110257;28;20036;-64
2022/06/28 07:59:00;;;;;;;10.27;6.20;;;18.70;99.90;;;;;;5110475;28;20034;-64
2022/06/28 08:01:26;;;;;;;10.57;6.72;;;18.60;99.90;;;;;;5109311;28;20091;-64
2022/06/28 08:03:52;;;;;;;8.55;6.65;;;18.50;99.90;;;;;;5016664;28;20030;-64
2022/06/28 08:06:18;;;;;;;7.07;5.63;;;18.50;99.90;;;;;;5006345;28;20535;-63
2022/06/28 08:08:43;;;;;;;12.73;7.20;;;18.50;99.90;;;;;;5006648;28;20054;-63
2022/06/28 08:11:10;;;;;;;12.35;6.45;;;18.40;99.90;;;;;;5005423;28;20105;-64
2022/06/28 08:13:37;;;;;;;10.63;7.05;;;18.30;99.90;;;;;;5006928;28;20401;-64
2022/06/28 08:16:03;;;;;;;10.52;6.43;;;18.20;99.90;;;;;;5027515;28;20039;-64
2022/06/28 08:18:29;;;;;;;9.73;6.50;;;18.10;99.90;;;;;;5092503;28;20035;-63
2022/06/28 08:20:55;;;;;;;8.52;6.38;;;18.10;99.90;;;;;;5109779;28;20046;-63
2022/06/28 08:23:21;;;;;;;12.38;6.38;;;18.30;99.90;;;;;;5109116;28;20032;-64
2022/06/28 08:25:47;;;;;;;9.35;5.97;;;18.40;99.90;;;;;;5109471;28;20016;-64
2022/06/28 08:28:13;;;;;;;10.82;6.50;;;18.50;99.90;;;;;;5108921;28;20184;-64
2022/06/28 08:30:40;;;;;;;12.05;6.55;;;18.50;99.90;;;;;;5109708;28;20020;-63
2022/06/28 08:33:06;;;;;;;9.80;6.53;;;18.50;99.90;;;;;;5101354;28;20447;-64
2022/06/28 08:35:32;;;;;;;11.65;6.70;;;18.70;99.90;;;;;;5109545;28;20106;-64
2022/06/28 08:37:58;;;;;;;7.22;5.57;;;18.70;99.90;;;;;;5109677;28;20027;-63
2022/06/28 08:40:25;;;;;;;10.15;6.35;;;18.70;99.90;;;;;;5108934;28;20102;-63
2022/06/28 08:42:57;;;;;;;8.63;6.10;;;18.80;99.90;;;;;;5109381;28;20024;-63
2022/06/28 08:45:23;;;;;;;8.95;6.72;;;19.00;99.90;;;;;;5108328;28;20085;-63
2022/06/28 08:47:55;;;;;;;8.98;5.97;;;19.20;99.90;;;;;;5097064;28;20027;-63
2022/06/28 08:50:39;;;;;;;9.60;5.65;;;19.50;99.90;;;;;;5080464;28;20122;-64
2022/06/28 08:53:07;;;;;;;9.68;5.72;;;19.90;99.90;;;;;;5106647;28;20036;-64
2022/06/28 08:55:35;;;;;;;8.82;5.28;;;20.20;99.90;;;;;;5108824;28;20560;-64
2022/06/28 08:58:04;;;;;;;9.10;4.80;;;20.60;99.90;;;;;;5109382;28;20047;-64
2022/06/28 09:00:30;;;;;;;6.50;4.13;;;20.90;99.90;;;;;;5108426;28;20064;-64
2022/06/28 09:02:56;;;;;;;6.97;4.30;;;20.80;99.90;;;;;;5108862;28;20027;-65
2022/06/28 09:05:24;;;;;;;5.72;3.70;;;20.70;99.90;;;;;;5103162;28;20153;-65
2022/06/28 09:07:50;;;;;;;4.40;2.85;;;20.70;99.90;;;;;;5005393;28;20065;-64
2022/06/28 09:10:17;;;;;;;6.22;3.30;;;20.90;99.90;;;;;;5005365;28;20038;-64
2022/06/28 09:12:54;;;;;;;6.30;3.50;;;21.10;99.90;;;;;;5005804;28;20697;-64
2022/06/28 09:15:22;;;;;;;4.80;3.05;;;21.10;99.90;;;;;;5005129;28;20030;-63
2022/06/28 09:17:53;;;;;;;3.08;2.38;;;21.30;99.90;;;;;;5006057;28;20033;-64
2022/06/28 09:20:18;;;;;;;6.60;2.25;;;21.50;99.90;;;;;;5004289;28;20034;-64
2022/06/28 09:22:44;;;;;;;4.72;2.55;;;21.40;99.90;;;;;;5005873;28;20142;-63
2022/06/28 09:25:26;;;;;;;4.72;2.75;;;21.30;99.90;;;;;;5005585;28;20061;-65
2022/06/28 09:27:57;;;;;;;4.95;2.60;;;21.40;99.90;;;;;;5022001;28;20102;-64
2022/06/28 09:30:26;;;;;;;3.50;2.35;;;21.60;99.90;;;;;;5005015;28;20038;-63
2022/06/28 09:32:52;;;;;;;2.80;2.05;;;21.70;99.90;;;;;;5005915;28;20049;-64
2022/06/28 09:35:17;;;;;;;6.00;2.58;;;21.80;99.90;;;;;;5021249;28;20055;-64
2022/06/28 09:37:48;;;;;;;2.72;2.10;;;21.70;99.90;;;;;;5106984;28;20036;-63
2022/06/28 09:40:19;;;;;;;8.45;2.28;;;21.90;99.90;;;;;;5107654;28;20039;-65
2022/06/28 09:42:47;;;;;;;3.80;2.50;;;21.90;99.90;;;;;;5108849;28;20028;-63
2022/06/28 09:45:16;;;;;;;3.35;2.10;;;22.00;99.90;;;;;;5108286;28;20031;-65
2022/06/28 09:47:47;;;;;;;3.33;2.30;;;22.10;99.90;;;;;;5108754;28;20020;-63
2022/06/28 09:50:19;;;;;;;4.85;2.72;;;22.00;99.90;;;;;;5101814;28;20062;-65
2022/06/28 09:52:45;;;;;;;4.22;2.25;;;22.20;99.90;;;;;;5005666;28;20034;-63
2022/06/28 09:55:14;;;;;;;7.82;2.35;;;22.20;99.90;;;;;;5008273;28;20040;-64
2022/06/28 09:57:42;;;;;;;4.30;2.42;;;22.20;99.90;;;;;;5083227;28;20035;-64
2022/06/28 10:00:08;;;;;;;8.93;2.55;;;22.30;99.90;;;;;;5096761;28;20449;-63
2022/06/28 10:02:35;;;;;;;3.38;2.38;;;22.20;99.90;;;;;;5111851;28;20103;-65
2022/06/28 10:05:01;;;;;;;3.70;2.50;;;22.30;99.90;;;;;;5112724;28;20046;-64
2022/06/28 10:07:34;;;;;;;3.05;2.28;;;22.10;99.90;;;;;;5111533;28;20059;-65
2022/06/28 10:10:01;;;;;;;4.22;2.38;;;21.80;99.90;;;;;;5105304;28;20736;-63
2022/06/28 10:15:18;;;;;;;3.65;2.20;;;21.80;99.90;;;;;;4989123;28;20196;-65
2022/06/28 10:17:47;;;;;;;3.67;2.55;;;22.10;99.90;;;;;;4989133;28;20026;-63
2022/06/28 10:20:17;;;;;;;5.18;2.70;;;22.40;99.90;;;;;;4988959;28;20065;-65
2022/06/28 10:22:43;;;;;;;8.93;2.70;;;22.60;99.90;;;;;;4989267;28;20030;-63
2022/06/28 10:25:22;;;;;;;3.42;2.60;;;22.60;99.90;;;;;;5011556;28;20088;-64
2022/06/28 10:27:52;;;;;;;4.65;2.67;;;22.70;99.90;;;;;;5112330;28;20034;-64
2022/06/28 10:30:20;;;;;;;3.80;2.70;;;22.50;99.90;;;;;;5111279;28;20035;-65
2022/06/28 10:32:46;;;;;;;5.68;3.00;;;22.60;99.90;;;;;;5112011;28;20035;-63
2022/06/28 10:35:35;;;;;;;2.70;2.40;;;22.20;99.90;;;;;;5112148;28;20518;-63
2022/06/28 10:38:21;;;;;;;2.92;2.30;;;22.30;99.90;;;;;;5098544;28;20035;-64
2022/06/28 10:40:49;;;;;;;5.72;2.47;;;22.70;99.90;;;;;;5050792;28;20050;-64
2022/06/28 10:43:42;;;;;;;4.78;2.53;;;22.80;99.90;;;;;;5088187;28;20139;-66
2022/06/28 10:46:09;;;;;;;3.63;2.58;;;22.70;99.90;;;;;;5107501;28;20030;-65
2022/06/28 10:49:11;;;;;;;4.90;2.17;;;22.60;99.90;;;;;;5046573;28;20114;-65
2022/06/28 10:51:41;;;;;;;4.70;2.20;;;22.60;99.90;;;;;;5093623;28;20629;-63
2022/06/28 10:54:09;;;;;;;;;;;22.80;99.90;;;;;;5026106;28;20030;-64
2022/06/28 10:56:47;;;;;;;4.93;2.63;;;23.00;99.90;;;;;;5072271;28;19922;-64
2022/06/28 10:59:18;;;;;;;5.68;2.58;;;22.90;99.90;;;;;;5090671;28;20026;-63
2022/06/28 11:01:46;;;;;;;4.18;2.10;;;22.90;99.90;;;;;;5008151;28;20056;-63
2022/06/28 11:04:18;;;;;;;3.25;1.95;;;22.90;99.90;;;;;;5045701;28;20476;-63
2022/06/28 11:06:58;;;;;;;1.90;1.67;;;22.80;99.90;;;;;;5110057;28;20100;-64
2022/06/28 11:09:56;;;;;;;4.38;2.33;;;23.00;99.90;;;;;;5110467;28;20078;-64
2022/06/28 11:12:28;;;;;;;4.05;1.90;;;23.20;99.90;;;;;;5102709;28;20251;-65
2022/06/28 11:15:36;;;;;;;4.32;1.73;;;23.30;99.90;;;;;;5108566;28;20483;-64
2022/06/28 11:18:03;;;;;;;6.15;2.25;;;23.50;99.90;;;;;;5111354;28;20126;-65
2022/06/28 11:20:30;;;;;;;4.13;2.00;;;23.30;99.90;;;;;;5108894;28;20031;-65
2022/06/28 11:22:56;;;;;;;2.85;1.85;;;23.00;99.90;;;;;;5018319;28;20497;-64
2022/06/28 11:25:24;;;;;;;3.72;1.98;;;23.20;99.90;;;;;;5006965;28;20026;-63
2022/06/28 11:27:56;;;;;;;3.08;1.83;;;23.10;99.90;;;;;;5006782;28;20438;-64
2022/06/28 11:30:26;;;;;;;3.70;2.22;;;23.10;99.90;;;;;;5006841;28;20042;-64
2022/06/28 11:32:54;;;;;;;3.78;1.85;;;23.00;99.90;;;;;;5007737;28;20147;-64
2022/06/28 11:35:24;;;;;;;2.40;1.80;;;23.00;99.90;;;;;;5007158;28;20026;-65
2022/06/28 11:37:54;;;;;;;14.10;1.73;;;23.40;99.90;;;;;;5007716;28;20026;-65
2022/06/28 11:40:49;;;;;;;4.75;2.10;;;23.90;99.90;;;;;;5007222;28;20042;-65
2022/06/28 11:43:18;;;;;;;3.65;1.70;;;23.90;99.90;;;;;;5038644;28;20032;-64
2022/06/28 11:45:46;;;;;;;3.08;1.67;;;24.20;99.90;;;;;;5097374;28;20031;-64
2022/06/28 11:48:18;;;;;;;3.38;1.70;;;24.40;99.90;;;;;;5107874;28;20078;-65
2022/06/28 11:50:51;;;;;;;5.22;2.67;;;24.50;99.90;;;;;;5110310;28;20055;-63
2022/06/28 11:53:21;;;;;;;1.42;1.30;;;24.00;99.90;;;;;;5110673;28;20032;-64
2022/06/28 11:55:49;;;;;;;6.00;1.75;;;24.20;99.90;;;;;;5110349;28;20047;-64
2022/06/28 11:58:23;;;;;;;3.78;1.92;;;24.50;99.90;;;;;;5110235;28;20312;-66
2022/06/28 12:01:14;;;;;;;3.95;1.92;;;24.40;99.90;;;;;;5086126;28;20423;-65
2022/06/28 12:03:42;;;;;;;2.53;1.63;;;24.00;99.90;;;;;;5006777;28;20497;-65
2022/06/28 12:06:10;;;;;;;1.92;1.67;;;23.80;99.90;;;;;;5006849;28;20053;-65
2022/06/28 12:09:09;;;;;;;1.50;1.40;;;23.60;99.90;;;;;;5006042;28;20042;-65
2022/06/28 12:11:40;;;;;;;2.97;1.92;;;23.70;99.90;;;;;;5006321;28;20572;-67
2022/06/28 12:14:20;;;;;;;2.95;1.55;;;23.90;99.90;;;;;;5006953;28;20030;-65
2022/06/28 12:16:55;;;;;;;3.57;1.30;;;23.90;99.90;;;;;;5073856;28;20114;-66
2022/06/28 12:19:35;;;;;;;4.07;1.65;;;23.90;99.90;;;;;;5109756;28;20043;-66
2022/06/28 12:22:03;;;;;;;2.80;1.95;;;23.90;99.90;;;;;;5110132;28;20036;-65
2022/06/28 12:24:40;;;;;;;2.40;1.90;;;24.10;99.90;;;;;;5063998;28;20090;-65
2022/06/28 12:27:07;;;;;;;2.15;1.70;;;24.30;99.90;;;;;;5006954;28;20025;-65
2022/06/28 12:29:33;;;;;;;4.35;1.65;;;24.50;99.90;;;;;;5005865;28;20069;-64
2022/06/28 12:31:59;;;;;;;3.17;1.80;;;24.40;99.90;;;;;;5041205;28;20031;-64
2022/06/28 12:34:25;;;;;;;2.47;1.80;;;24.20;99.90;;;;;;5109025;28;20070;-66
2022/06/28 12:36:50;;;;;;;2.97;1.77;;;24.00;99.90;;;;;;5109698;28;20059;-66
2022/06/28 12:39:16;;;;;;;3.33;1.98;;;23.90;99.90;;;;;;5109710;28;20111;-65
2022/06/28 12:41:42;;;;;;;15.95;1.92;;;24.00;99.90;;;;;;5108761;28;20035;-65
2022/06/28 12:44:08;;;;;;;2.30;1.88;;;24.10;99.90;;;;;;5090976;28;20023;-65
2022/06/28 12:46:34;;;;;;;3.08;1.88;;;24.20;99.90;;;;;;5092885;28;20507;-65
2022/06/28 12:49:00;;;;;;;5.32;2.00;;;24.40;99.90;;;;;;5109885;28;20027;-65
2022/06/28 12:51:26;;;;;;;2.38;1.75;;;24.50;99.90;;;;;;5036461;28;20413;-66
2022/06/28 12:53:52;;;;;;;2.95;1.80;;;24.70;99.90;;;;;;5006340;28;20030;-65